Weather Outlook 8th November 2019 (6pm)

Unstable conditions associated with a tropical wave will dominate the weather pattern during the next 48 hours.

Occasional light to moderate showers and a moderate chance (60%) of isolated thunderstorms are possible tonight into Saturday.  Lingering moisture will continue into Sunday with similar conditions.

Scattered showers are likely on Monday due to unstable conditions moving across the island chain.

A moderate east to east north-easterly (E-ENE) wind flow will continue over the weekend, with higher gust near showers.  Sea conditions will be slight to moderate in open waters (1.0m -2.0m) throughout this forecast period. There will be no significant haze intrusion within this forecast period.

 

Aviation WX

[Source: ADDS]
METAR
TVSA 171600Z 08009KT 050V120 9999 BKN021 28/23 Q1016 =
TVSA 171700Z 1718/1818 07012KT 9999 SCT024 PROB30 TEMPO 1722/1802 SHRA BKN014
TAF
TVSA 171700Z 1718/1818 07012KT 9999 SCT024 PROB30 TEMPO 1722/1802 SHRA BKN014 =
SR / SS: 10:31 / 21:58 UTC (Sunrise Sunset 2020-01-17)